createdAt,value
2019-01-30T00:02:01.751Z,11.10
2019-01-30T00:04:30.536Z,10.47
2019-01-30T00:06:59.314Z,9.87
2019-01-30T00:09:28.173Z,10.17
2019-01-30T00:11:56.962Z,9.53
2019-01-30T00:14:25.743Z,10.57
2019-01-30T00:16:54.569Z,10.50
2019-01-30T00:19:23.336Z,10.87
2019-01-30T00:21:52.121Z,10.57
2019-01-30T00:24:20.920Z,10.77
2019-01-30T00:26:49.707Z,10.03
2019-01-30T00:29:18.496Z,10.43
2019-01-30T00:31:47.283Z,10.47
2019-01-30T00:34:16.075Z,10.63
2019-01-30T00:36:44.860Z,10.53
2019-01-30T00:39:13.667Z,9.70
2019-01-30T00:41:42.438Z,10.07
2019-01-30T00:44:11.219Z,11.07
2019-01-30T00:46:40.011Z,9.43
2019-01-30T00:49:08.800Z,10.10
2019-01-30T00:51:37.607Z,9.50
2019-01-30T00:54:06.415Z,10.10
2019-01-30T00:56:36.111Z,10.13
2019-01-30T00:59:04.962Z,10.47
2019-01-30T01:01:33.760Z,10.97
2019-01-30T01:04:02.659Z,9.97
2019-01-30T01:06:31.485Z,10.23
2019-01-30T01:09:00.251Z,9.87
2019-01-30T01:11:29.035Z,11.20
2019-01-30T01:13:57.827Z,11.13
2019-01-30T01:16:26.672Z,10.70
2019-01-30T01:18:55.481Z,10.87
2019-01-30T01:21:24.284Z,11.27
2019-01-30T01:23:53.070Z,11.70
2019-01-30T01:26:21.868Z,10.63
2019-01-30T01:28:50.663Z,10.83
2019-01-30T01:31:19.438Z,11.47
2019-01-30T01:33:48.238Z,12.23
2019-01-30T01:36:17.066Z,10.97
2019-01-30T01:38:45.831Z,10.80
2019-01-30T01:41:14.633Z,10.97
2019-01-30T01:43:43.399Z,11.30
2019-01-30T01:46:12.182Z,11.40
2019-01-30T01:48:41.170Z,11.07
2019-01-30T01:51:09.967Z,10.73
2019-01-30T01:53:45.468Z,11.60
2019-01-30T01:56:14.264Z,10.30
2019-01-30T01:58:43.139Z,11.27
2019-01-30T02:01:11.906Z,11.90
2019-01-30T02:03:40.692Z,10.90
2019-01-30T02:06:09.470Z,10.67
2019-01-30T02:08:38.247Z,10.40
2019-01-30T02:11:07.042Z,10.10
2019-01-30T02:13:35.855Z,11.00
2019-01-30T02:16:04.680Z,10.93
2019-01-30T02:18:33.454Z,10.77
2019-01-30T02:21:02.243Z,10.80
2019-01-30T02:23:31.032Z,10.90
2019-01-30T02:25:59.822Z,10.83
2019-01-30T02:28:28.638Z,10.73
2019-01-30T02:30:57.427Z,10.87
2019-01-30T02:33:26.240Z,11.37
2019-01-30T02:35:55.051Z,11.10
2019-01-30T02:38:23.843Z,10.03
2019-01-30T02:40:52.665Z,9.40
2019-01-30T02:43:21.475Z,11.37
2019-01-30T02:45:50.254Z,10.37
2019-01-30T02:48:19.212Z,10.03
2019-01-30T02:50:48.008Z,10.20
2019-01-30T02:53:16.805Z,10.93
2019-01-30T02:55:45.587Z,10.27
2019-01-30T02:58:14.360Z,10.37
2019-01-30T03:00:43.178Z,11.20
2019-01-30T03:03:11.959Z,10.87
2019-01-30T03:05:40.778Z,11.30
2019-01-30T03:08:09.596Z,10.23
2019-01-30T03:10:38.403Z,11.10
2019-01-30T03:13:07.410Z,11.17
2019-01-30T03:15:36.235Z,10.57
2019-01-30T03:18:05.149Z,9.67
2019-01-30T03:20:33.947Z,10.27
2019-01-30T03:23:02.723Z,11.63
2019-01-30T03:25:31.518Z,10.80
2019-01-30T03:28:00.323Z,11.40
2019-01-30T03:30:30.798Z,10.37
2019-01-30T03:32:59.640Z,10.67
2019-01-30T03:35:28.624Z,10.93
2019-01-30T03:37:57.331Z,12.07
2019-01-30T03:40:26.139Z,11.40
2019-01-30T03:42:54.947Z,10.43
2019-01-30T03:45:23.766Z,11.77
2019-01-30T03:47:52.559Z,12.07
2019-01-30T03:50:21.349Z,11.77
2019-01-30T03:52:50.254Z,11.73
2019-01-30T03:55:18.987Z,12.10
2019-01-30T03:57:48.021Z,12.47
2019-01-30T04:00:19.482Z,12.03
2019-01-30T04:02:48.265Z,12.40
2019-01-30T04:05:17.057Z,12.43
2019-01-30T04:07:46.447Z,12.67
2019-01-30T04:10:18.287Z,12.27
2019-01-30T04:12:47.074Z,12.23
2019-01-30T04:15:15.877Z,12.40
2019-01-30T04:17:44.666Z,12.17
2019-01-30T04:20:14.479Z,12.73
2019-01-30T04:22:43.268Z,13.63
2019-01-30T04:25:12.099Z,12.23
2019-01-30T04:27:40.868Z,12.80
2019-01-30T04:30:14.037Z,12.90
2019-01-30T04:32:42.836Z,12.80
2019-01-30T04:35:11.635Z,12.63
2019-01-30T04:37:40.427Z,13.03
2019-01-30T04:40:11.742Z,13.67
2019-01-30T04:42:40.426Z,13.53
2019-01-30T04:45:11.447Z,12.87
2019-01-30T04:47:40.245Z,12.67
2019-01-30T04:50:09.058Z,12.53
2019-01-30T04:52:37.854Z,13.07
2019-01-30T04:55:06.798Z,12.63
2019-01-30T04:57:35.632Z,12.37
2019-01-30T05:00:05.704Z,12.17
2019-01-30T05:02:34.501Z,12.43
2019-01-30T05:05:03.331Z,13.00
2019-01-30T05:07:32.107Z,12.33
2019-01-30T05:10:00.943Z,12.40
2019-01-30T05:12:29.750Z,12.80
2019-01-30T05:14:59.620Z,13.10
2019-01-30T05:17:28.465Z,12.33
2019-01-30T05:19:57.325Z,12.80
2019-01-30T05:22:26.063Z,12.53
2019-01-30T05:24:54.871Z,13.10
2019-01-30T05:27:23.656Z,12.20
2019-01-30T05:29:52.482Z,13.30
2019-01-30T05:32:21.272Z,12.00
2019-01-30T05:34:50.058Z,13.47
2019-01-30T05:37:18.869Z,13.43
2019-01-30T05:39:47.675Z,13.27
2019-01-30T05:42:16.507Z,13.37
2019-01-30T05:44:46.834Z,13.23
2019-01-30T05:47:15.619Z,13.17
2019-01-30T05:49:44.470Z,13.63
2019-01-30T05:52:13.272Z,12.97
2019-01-30T05:54:42.051Z,13.93
2019-01-30T05:57:10.826Z,12.80
2019-01-30T05:59:39.617Z,13.10
2019-01-30T06:02:12.182Z,11.93
2019-01-30T06:04:37.222Z,13.57
2019-01-30T06:07:06.084Z,13.17
2019-01-30T06:09:34.944Z,12.97
2019-01-30T06:12:03.744Z,13.23
2019-01-30T06:14:32.552Z,13.57
2019-01-30T06:17:01.342Z,13.70
2019-01-30T06:19:30.155Z,12.00
2019-01-30T06:21:58.929Z,13.70
2019-01-30T06:24:27.727Z,15.37
2019-01-30T06:26:56.527Z,12.97
2019-01-30T06:29:25.307Z,13.83
2019-01-30T06:31:54.115Z,13.17
2019-01-30T06:34:22.902Z,12.50
2019-01-30T06:36:51.696Z,12.37
2019-01-30T06:39:20.503Z,12.90
2019-01-30T06:41:49.278Z,11.83
2019-01-30T06:44:18.082Z,11.97
2019-01-30T06:46:46.863Z,11.70
2019-01-30T06:49:15.642Z,11.57
2019-01-30T06:51:44.443Z,12.80
2019-01-30T06:54:13.289Z,12.70
2019-01-30T06:56:42.076Z,13.77
2019-01-30T06:59:10.871Z,11.17
2019-01-30T07:01:39.695Z,12.30
2019-01-30T07:04:08.471Z,12.30
2019-01-30T07:06:37.259Z,11.83
2019-01-30T07:09:09.919Z,11.83
2019-01-30T07:11:38.744Z,12.20
2019-01-30T07:14:07.580Z,12.50
2019-01-30T07:16:36.351Z,11.97
2019-01-30T07:19:05.151Z,12.73
2019-01-30T07:21:33.941Z,12.23
2019-01-30T07:24:02.736Z,12.77
2019-01-30T07:26:31.541Z,11.23
2019-01-30T07:29:00.356Z,11.37
2019-01-30T07:31:29.147Z,12.93
2019-01-30T07:33:57.978Z,12.03
2019-01-30T07:36:26.828Z,12.27
2019-01-30T07:38:55.703Z,12.63
2019-01-30T07:41:25.461Z,12.00
2019-01-30T07:43:54.327Z,12.27
2019-01-30T07:46:23.125Z,12.77
2019-01-30T07:48:51.912Z,11.97
2019-01-30T07:51:20.706Z,12.07
2019-01-30T07:53:49.525Z,11.70
2019-01-30T07:56:18.310Z,12.10
2019-01-30T07:58:47.113Z,12.67
2019-01-30T08:01:15.907Z,11.80
2019-01-30T08:03:44.731Z,12.87
2019-01-30T08:06:13.532Z,11.37
2019-01-30T08:08:42.334Z,12.30
2019-01-30T08:11:11.120Z,11.67
2019-01-30T08:13:39.903Z,11.37
2019-01-30T08:16:08.709Z,11.77
2019-01-30T08:18:37.496Z,11.97
2019-01-30T08:21:06.315Z,15.13
2019-01-30T08:23:36.719Z,12.43
2019-01-30T08:26:12.268Z,12.50
2019-01-30T08:28:40.914Z,11.73
2019-01-30T08:31:09.817Z,12.37
2019-01-30T08:33:38.379Z,13.23
2019-01-30T08:36:07.297Z,12.40
2019-01-30T08:38:36.074Z,10.43
2019-01-30T08:41:04.911Z,10.63
2019-01-30T08:43:33.793Z,12.50
2019-01-30T08:46:02.627Z,12.20
2019-01-30T08:48:31.441Z,12.03
2019-01-30T08:51:00.235Z,10.83
2019-01-30T08:53:29.055Z,11.87
2019-01-30T08:55:57.850Z,11.80
2019-01-30T08:58:26.653Z,13.23
2019-01-30T09:00:55.457Z,13.17
2019-01-30T09:03:24.247Z,11.90
2019-01-30T09:05:53.045Z,12.37
2019-01-30T09:08:21.810Z,12.07
2019-01-30T09:10:50.592Z,12.67
2019-01-30T09:13:19.367Z,12.60
2019-01-30T09:15:48.191Z,13.37
2019-01-30T09:18:16.984Z,12.13
2019-01-30T09:20:45.776Z,13.00
2019-01-30T09:23:14.563Z,12.87
2019-01-30T09:25:43.349Z,12.17
2019-01-30T09:28:12.135Z,12.67
2019-01-30T09:30:40.939Z,11.70
2019-01-30T09:33:10.983Z,12.23
2019-01-30T09:35:39.790Z,13.10
2019-01-30T09:38:08.591Z,13.53
2019-01-30T09:40:37.407Z,11.93
2019-01-30T09:43:06.211Z,12.87
2019-01-30T09:45:35.036Z,11.80
2019-01-30T09:48:03.771Z,12.43
2019-01-30T09:50:34.247Z,11.97
2019-01-30T09:53:01.351Z,11.77
2019-01-30T09:55:30.179Z,12.73
2019-01-30T09:57:58.938Z,12.27
2019-01-30T10:00:29.850Z,12.47
2019-01-30T10:02:58.626Z,12.30
2019-01-30T10:05:27.443Z,13.03
2019-01-30T10:07:56.227Z,11.90
2019-01-30T10:10:27.213Z,11.50
2019-01-30T10:12:56.029Z,13.07
2019-01-30T10:15:26.826Z,12.20
2019-01-30T10:17:55.599Z,12.17
2019-01-30T10:20:25.530Z,12.63
2019-01-30T10:22:54.395Z,11.80
2019-01-30T10:25:23.210Z,12.23
2019-01-30T10:27:52.023Z,12.87
2019-01-30T10:30:23.467Z,12.77
2019-01-30T10:32:52.249Z,11.67
2019-01-30T10:35:21.074Z,13.13
2019-01-30T10:37:49.880Z,12.17
2019-01-30T10:40:19.202Z,12.57
2019-01-30T10:42:48.023Z,12.20
2019-01-30T10:45:16.808Z,13.50
2019-01-30T10:47:45.592Z,11.77
2019-01-30T10:50:16.416Z,11.67
2019-01-30T10:52:45.703Z,12.40
2019-01-30T10:55:16.770Z,12.47
2019-01-30T10:57:46.249Z,12.80
2019-01-30T11:00:18.486Z,11.47
2019-01-30T11:02:47.330Z,12.43
2019-01-30T11:05:16.335Z,12.13
2019-01-30T11:07:45.543Z,12.73
2019-01-30T11:10:15.826Z,12.60
2019-01-30T11:12:44.630Z,13.43
2019-01-30T11:15:15.680Z,12.00
2019-01-30T11:17:44.492Z,11.70
2019-01-30T11:20:14.882Z,11.40
2019-01-30T11:22:43.684Z,11.97
2019-01-30T11:25:16.650Z,11.77
2019-01-30T11:27:45.460Z,12.63
2019-01-30T11:30:14.300Z,12.30
2019-01-30T11:32:43.083Z,12.20
2019-01-30T11:35:11.891Z,12.70
2019-01-30T11:37:40.723Z,12.90
2019-01-30T11:40:10.807Z,12.33
2019-01-30T11:42:39.589Z,11.63
2019-01-30T11:45:11.960Z,11.23
2019-01-30T11:47:40.748Z,12.27
2019-01-30T11:50:10.658Z,11.37
2019-01-30T11:52:39.468Z,12.30
2019-01-30T11:55:09.888Z,12.53
2019-01-30T11:57:38.712Z,10.93
2019-01-30T12:00:09.739Z,11.00
2019-01-30T12:02:47.770Z,12.33
2019-01-30T12:05:09.742Z,11.27
2019-01-30T12:07:38.595Z,12.20
2019-01-30T12:10:08.231Z,11.90
2019-01-30T12:12:37.051Z,12.07
2019-01-30T12:15:08.175Z,11.90
2019-01-30T12:17:37.015Z,11.80
2019-01-30T12:20:08.004Z,12.33
2019-01-30T12:22:36.856Z,11.57
2019-01-30T12:25:06.906Z,11.40
2019-01-30T12:27:35.723Z,10.93
2019-01-30T12:30:07.381Z,11.37
2019-01-30T12:32:36.191Z,13.17
2019-01-30T12:35:05.673Z,12.10
2019-01-30T12:37:34.492Z,11.47
2019-01-30T12:40:03.355Z,10.83
2019-01-30T12:42:32.202Z,13.77
2019-01-30T12:45:00.991Z,11.97
2019-01-30T12:47:29.783Z,12.67
2019-01-30T12:49:58.579Z,12.70
2019-01-30T12:52:27.376Z,12.03
2019-01-30T12:54:56.312Z,12.43
2019-01-30T12:57:25.104Z,11.73
2019-01-30T12:59:53.941Z,12.30
2019-01-30T13:02:22.724Z,12.23
2019-01-30T13:04:51.515Z,11.43
2019-01-30T13:07:20.323Z,11.97
2019-01-30T13:09:49.103Z,12.00
2019-01-30T13:12:17.911Z,11.80
2019-01-30T13:14:46.698Z,12.23
2019-01-30T13:17:15.522Z,12.13
2019-01-30T13:19:44.362Z,11.77
2019-01-30T13:22:13.219Z,12.30
2019-01-30T13:24:42.025Z,12.50
2019-01-30T13:27:10.824Z,11.97
2019-01-30T13:29:39.631Z,11.83
2019-01-30T13:32:08.468Z,14.13
2019-01-30T13:34:37.330Z,12.33
2019-01-30T13:37:06.210Z,11.63
2019-01-30T13:39:34.976Z,11.73
2019-01-30T13:42:03.815Z,11.90
2019-01-30T13:44:32.650Z,11.20
2019-01-30T13:47:01.489Z,12.03
2019-01-30T13:49:30.290Z,12.10
2019-01-30T13:51:59.087Z,12.27
2019-01-30T13:54:27.914Z,12.83
2019-01-30T13:56:57.297Z,12.70
2019-01-30T13:59:26.128Z,12.63
2019-01-30T14:01:54.892Z,13.60
2019-01-30T14:04:23.703Z,15.10
2019-01-30T14:06:52.501Z,13.13
2019-01-30T14:09:21.278Z,13.13
2019-01-30T14:11:50.113Z,13.30
2019-01-30T14:14:18.881Z,13.20
2019-01-30T14:16:47.675Z,12.13
2019-01-30T14:19:16.476Z,11.83
2019-01-30T14:21:45.316Z,12.90
2019-01-30T14:24:15.187Z,13.00
2019-01-30T14:26:44.112Z,12.67
2019-01-30T14:29:12.862Z,12.10
2019-01-30T14:31:41.662Z,13.00
2019-01-30T14:34:10.500Z,13.90
2019-01-30T14:36:39.251Z,13.17
2019-01-30T14:39:09.146Z,13.57
2019-01-30T14:41:38.344Z,13.80
2019-01-30T14:44:07.110Z,12.87
2019-01-30T14:46:35.934Z,13.57
2019-01-30T14:49:04.878Z,13.27
2019-01-30T14:51:33.716Z,13.83
2019-01-30T14:54:02.489Z,14.57
2019-01-30T14:56:31.374Z,13.60
2019-01-30T14:59:00.146Z,13.30
2019-01-30T15:01:28.960Z,14.17
2019-01-30T15:03:58.823Z,13.90
2019-01-30T15:06:27.714Z,14.97
2019-01-30T15:08:56.522Z,14.87
2019-01-30T15:11:25.480Z,15.40
2019-01-30T15:13:54.356Z,14.50
2019-01-30T15:16:23.350Z,15.83
2019-01-30T15:18:52.122Z,16.00
2019-01-30T15:21:20.975Z,16.20
2019-01-30T15:23:49.767Z,16.53
2019-01-30T15:26:18.603Z,15.90
2019-01-30T15:28:47.388Z,15.97
2019-01-30T15:31:16.199Z,17.20
2019-01-30T15:33:44.995Z,16.70
2019-01-30T15:36:13.809Z,17.93
2019-01-30T15:38:42.649Z,16.17
2019-01-30T15:41:11.463Z,16.93
2019-01-30T15:43:40.296Z,17.63
2019-01-30T15:46:09.087Z,19.00
2019-01-30T15:48:37.888Z,16.73
2019-01-30T15:51:06.820Z,17.20
2019-01-30T15:53:35.736Z,16.70
2019-01-30T15:56:05.700Z,16.03
2019-01-30T15:58:34.547Z,15.40
2019-01-30T16:01:08.763Z,16.33
2019-01-30T16:03:37.559Z,15.77
2019-01-30T16:06:06.517Z,16.07
2019-01-30T16:08:35.343Z,16.73
2019-01-30T16:11:05.148Z,17.60
2019-01-30T16:13:35.044Z,17.97
2019-01-30T16:16:05.112Z,18.53
2019-01-30T16:18:34.208Z,18.10
2019-01-30T16:21:03.008Z,16.33
2019-01-30T16:23:32.614Z,17.03
2019-01-30T16:26:01.395Z,18.03
2019-01-30T16:28:39.755Z,18.50
2019-01-30T16:31:08.560Z,24.37
2019-01-30T16:33:37.934Z,16.77
2019-01-30T16:36:07.965Z,18.20
2019-01-30T16:38:36.768Z,19.37
2019-01-30T16:41:05.565Z,19.03
2019-01-30T16:43:34.378Z,19.43
2019-01-30T16:46:03.155Z,19.93
2019-01-30T16:48:32.047Z,19.27
2019-01-30T16:51:00.855Z,18.63
2019-01-30T16:53:29.654Z,19.57
2019-01-30T16:55:58.475Z,21.20
2019-01-30T16:58:27.355Z,27.60
2019-01-30T17:00:56.215Z,30.13
2019-01-30T17:03:25.043Z,28.67
2019-01-30T17:05:53.888Z,25.30
2019-01-30T17:08:22.835Z,36.50
2019-01-30T17:10:51.635Z,53.93
2019-01-30T17:13:20.456Z,29.10
2019-01-30T17:15:49.327Z,24.13
2019-01-30T17:18:18.014Z,23.90
2019-01-30T17:20:46.826Z,28.73
2019-01-30T17:23:15.602Z,32.97
2019-01-30T17:25:44.410Z,28.93
2019-01-30T17:28:13.192Z,29.10
2019-01-30T17:30:54.306Z,28.40
2019-01-30T17:33:23.110Z,29.70
2019-01-30T17:35:51.987Z,24.63
2019-01-30T17:38:20.782Z,29.80
2019-01-30T17:40:49.651Z,27.63
2019-01-30T17:43:18.480Z,27.50
2019-01-30T17:45:47.308Z,28.80
2019-01-30T17:48:16.162Z,29.50
2019-01-30T17:50:46.022Z,25.03
2019-01-30T17:53:14.818Z,29.90
2019-01-30T17:55:43.612Z,28.70
2019-01-30T17:58:12.497Z,31.30
2019-01-30T18:00:46.740Z,34.83
2019-01-30T18:03:14.863Z,29.30
2019-01-30T18:05:43.655Z,31.80
2019-01-30T18:08:12.463Z,29.03
2019-01-30T18:10:41.314Z,25.60
2019-01-30T18:13:10.122Z,25.47
2019-01-30T18:15:38.967Z,28.27
2019-01-30T18:18:07.801Z,27.50
2019-01-30T18:20:36.565Z,29.83
2019-01-30T18:23:05.377Z,29.77
2019-01-30T18:25:34.168Z,30.00
2019-01-30T18:29:32.576Z,28.57
2019-01-30T18:32:01.336Z,25.57
2019-01-30T18:34:30.119Z,33.13
2019-01-30T18:36:58.939Z,26.67
2019-01-30T18:39:27.724Z,32.67
2019-01-30T18:41:57.143Z,29.87
2019-01-30T18:44:25.979Z,27.93
2019-01-30T18:46:54.772Z,27.17
2019-01-30T18:49:23.571Z,29.30
2019-01-30T18:51:52.647Z,29.60
2019-01-30T18:54:21.770Z,32.60
2019-01-30T18:56:50.642Z,28.83
2019-01-30T18:59:19.573Z,32.50
2019-01-30T19:01:48.448Z,29.63
2019-01-30T19:04:17.399Z,34.37
2019-01-30T19:06:52.515Z,34.60
2019-01-30T19:09:15.067Z,34.20
2019-01-30T19:11:43.980Z,33.67
2019-01-30T19:14:12.809Z,31.27
2019-01-30T19:16:42.833Z,31.63
2019-01-30T19:19:11.673Z,31.93
2019-01-30T19:21:40.444Z,29.93
2019-01-30T19:24:09.267Z,29.17
2019-01-30T19:26:38.054Z,30.67
2019-01-30T19:29:06.873Z,29.67
2019-01-30T19:31:35.699Z,31.47
2019-01-30T19:34:04.602Z,26.73
2019-01-30T19:36:33.604Z,26.57
2019-01-30T19:39:02.400Z,28.27
2019-01-30T19:41:31.261Z,27.00
2019-01-30T19:44:00.047Z,28.10
2019-01-30T19:46:28.960Z,27.30
2019-01-30T19:48:57.759Z,35.30
2019-01-30T19:51:26.565Z,31.53
2019-01-30T19:53:55.439Z,27.73
2019-01-30T19:56:24.236Z,27.20
2019-01-30T19:58:53.142Z,29.37
2019-01-30T20:01:22.010Z,28.17
2019-01-30T20:03:50.819Z,31.50
2019-01-30T20:06:19.946Z,29.63
2019-01-30T20:08:48.778Z,25.50
2019-01-30T20:11:17.574Z,25.70
2019-01-30T20:13:48.832Z,25.53
2019-01-30T20:16:17.616Z,24.33
2019-01-30T20:18:46.439Z,24.57
2019-01-30T20:21:15.309Z,29.10
2019-01-30T20:23:44.182Z,28.40
2019-01-30T20:26:13.042Z,27.40
2019-01-30T20:28:41.924Z,26.30
2019-01-30T20:31:10.703Z,28.10
2019-01-30T20:33:39.550Z,30.00
2019-01-30T20:36:08.338Z,28.67
2019-01-30T20:38:37.167Z,27.17
2019-01-30T20:41:06.047Z,27.57
2019-01-30T20:43:34.882Z,30.33
2019-01-30T20:46:04.330Z,26.03
2019-01-30T20:48:33.086Z,31.20
2019-01-30T20:51:01.916Z,30.23
2019-01-30T20:53:30.690Z,28.13
2019-01-30T20:55:59.522Z,28.23
2019-01-30T20:58:28.318Z,27.00
2019-01-30T21:00:57.113Z,29.10
2019-01-30T21:03:26.003Z,28.27
2019-01-30T21:05:54.835Z,26.10
2019-01-30T21:08:23.628Z,23.40
2019-01-30T21:10:52.461Z,29.17
2019-01-30T21:13:21.256Z,26.07
2019-01-30T21:15:50.137Z,23.50
2019-01-30T21:18:18.979Z,26.43
2019-01-30T21:20:47.803Z,29.13
2019-01-30T21:23:16.764Z,27.77
2019-01-30T21:25:45.515Z,25.73
2019-01-30T21:28:14.414Z,25.90
2019-01-30T21:30:43.234Z,25.03
2019-01-30T21:33:12.130Z,25.33
2019-01-30T21:35:40.939Z,24.13
2019-01-30T21:38:09.728Z,22.03
2019-01-30T21:40:38.523Z,26.47
2019-01-30T21:43:07.360Z,25.30
2019-01-30T21:45:36.163Z,25.00
2019-01-30T21:48:05.541Z,23.90
2019-01-30T21:50:34.353Z,24.03
2019-01-30T21:53:03.139Z,29.47
2019-01-30T21:55:31.915Z,23.80
2019-01-30T21:58:00.700Z,25.23
2019-01-30T22:00:29.782Z,24.77
2019-01-30T22:02:58.607Z,22.27
2019-01-30T22:05:27.445Z,20.90
2019-01-30T22:08:00.946Z,21.97
2019-01-30T22:10:26.823Z,23.13
2019-01-30T22:12:55.669Z,21.17
2019-01-30T22:15:24.460Z,20.37
2019-01-30T22:17:53.379Z,18.63
2019-01-30T22:20:23.590Z,18.07
2019-01-30T22:22:52.375Z,17.27
2019-01-30T22:25:21.651Z,15.67
2019-01-30T22:27:50.636Z,16.20
2019-01-30T22:30:21.475Z,13.30
2019-01-30T22:32:50.356Z,10.83
2019-01-30T22:35:19.159Z,11.17
2019-01-30T22:37:48.003Z,9.93
2019-01-30T22:40:16.795Z,8.40
2019-01-30T22:42:45.590Z,8.00
2019-01-30T22:45:15.743Z,8.17
2019-01-30T22:47:44.617Z,7.47
2019-01-30T22:50:13.948Z,9.10
2019-01-30T22:52:42.758Z,8.40
2019-01-30T22:55:13.479Z,10.47
2019-01-30T22:57:42.302Z,12.33
2019-01-30T23:00:21.482Z,13.57
2019-01-30T23:02:50.271Z,14.73
2019-01-30T23:05:36.851Z,18.23
2019-01-30T23:08:34.419Z,17.87
2019-01-30T23:11:14.703Z,17.00
2019-01-30T23:13:54.356Z,18.50
2019-01-30T23:16:42.939Z,20.53
2019-01-30T23:19:23.955Z,17.07
2019-01-30T23:22:10.970Z,18.83
2019-01-30T23:26:53.990Z,18.30
2019-01-30T23:29:34.795Z,17.77
2019-01-30T23:32:16.177Z,19.33
2019-01-30T23:36:05.973Z,15.77
2019-01-30T23:38:58.903Z,21.73
2019-01-30T23:41:40.715Z,17.80
2019-01-30T23:44:19.050Z,18.20
2019-01-30T23:47:17.676Z,20.30
2019-01-30T23:50:05.346Z,19.83
2019-01-30T23:52:52.399Z,19.07
2019-01-30T23:55:31.452Z,19.97
